Bamberg, South Carolina
Current Conditions -  °F | °C
As of 10:53 AM on Tuesday 21 Oct 2014 (Local Time) from KOGB Reporting Station
Clear Clear  
Wind Chill: 69°   Ceiling: Unl
Heat Index: 69°   Visibility: 10mi
Dew Point: 53°   Wind: 6mph
Humidity: 57%   Direction: 320°NW
Pressure: 29.98"   Gusts: NA
Location:  33.3°N, 81.03°W
Report Text: KOGB 211453Z AUTO 32005KT 10SM CLR 21/12 A2998 RMK AO2 SLP149 T02060117 50001
Loading
Personal Weather Stations






























Interactive Weather Map
Tropical Storm Tracking
New forecast layout! Learn more

10-Day Weather Forecast

Advertisements
Track Severe Weather on mobile